Bhoptimer Stats - Record Database

:) Records (319)

Run ID SteamID Name Map Style / Track Rank Time Jumps Strafes Sync Points Date (YYYY-MM-DD)
9791 STEAM_1:0:109662329 :) bhop_gismo_fix Normal / Main 1 02:43.579m 209 273 90.00% 42.93 2020-01-22 07:54:21
9795 STEAM_1:0:109662329 :) bhop_danica Normal / Main 2 22.250s 30 47 93.42% 60.08 2020-01-22 11:35:11
9802 STEAM_1:0:109662329 :) bhop_nira Low Gravity / Main 3 27.561s 18 39 95.90% 42.24 2020-01-22 11:41:48
9799 STEAM_1:0:109662329 :) bhop_nira Normal / Main 4 31.161s 34 65 94.03% 46.58 2020-01-22 11:54:49
9803 STEAM_1:0:109662329 :) bhop_nihilism Normal / Main 5 04:20.083m 296 370 83.53% 26.51 2020-01-22 12:04:58
9804 STEAM_1:0:109662329 :) bhop_rooster Normal / Main 6 13:08.188m 706 856 87.56% 3.88 2020-01-22 12:20:33
9806 STEAM_1:0:109662329 :) bhop_rooster Low Gravity / Main 7 02:17.544m 97 175 92.32% 25.98 2020-01-22 12:23:57
9808 STEAM_1:0:109662329 :) bhop_militia_v2 Normal / Main 8 21.580s 29 41 95.51% 58.04 2020-01-22 13:43:41
9812 STEAM_1:0:109662329 :) bhop_vash Normal / Main 9 52.927s 71 89 95.85% 34.54 2020-01-22 13:52:16
9929 STEAM_1:0:109662329 :) bhop_developed_beta01 Normal / Main 10 04:46.699m 342 418 91.14% 65.70 2020-01-23 12:03:09
9933 STEAM_1:0:109662329 :) bhop_lava_fix Normal / Main 11 10.220s 14 31 86.72% 67.02 2020-01-23 12:13:31
9937 STEAM_1:0:109662329 :) bhop_nux Normal / Main 12 01:09.346m 83 121 89.98% 46.83 2020-01-23 13:18:26
10035 STEAM_1:0:109662329 :) bhop_velstand Normal / Main 13 01:21.019m 105 127 89.27% 31.80 2020-01-24 11:08:32
10037 STEAM_1:0:109662329 :) bhop_lil_pump Normal / Main 14 10.000s 14 26 95.60% 59.13 2020-01-24 11:25:14
11253 STEAM_1:0:109662329 :) bhop_woody Normal / Main 15 27.061s 35 58 94.34% 50.57 2020-02-12 07:04:57
11257 STEAM_1:0:109662329 :) bhop_tran Normal / Main 16 27.551s 35 50 95.88% 43.09 2020-02-12 12:18:05
11260 STEAM_1:0:109662329 :) bhop_simile Normal / Main 17 35.160s 46 56 91.16% 41.19 2020-02-12 12:37:45
11263 STEAM_1:0:109662329 :) bhop_fuckthis Normal / Main 18 9.030s 12 14 91.50% 48.76 2020-02-12 12:43:56
11264 STEAM_1:0:109662329 :) bhop_activz Normal / Main 19 10.810s 15 22 92.23% 49.29 2020-02-12 12:51:39
12144 STEAM_1:0:85989153 :) bhop_terryyy Normal / Main 20 22.040s 26 45 95.36% 76.47 2020-02-26 11:08:12
12226 STEAM_1:0:85989153 :) bhop_2_easy Normal / Main 21 8.630s 12 31 87.30% 73.19 2020-02-27 21:36:57
12323 STEAM_1:0:85989153 :) bhop_ssj Normal / Main 22 4.710s 7 21 91.02% 74.51 2020-02-28 19:08:20
12324 STEAM_1:0:85989153 :) bhop_ssj Half-Sideways / Main 23 5.660s 8 11 96.46% 83.23 2020-02-28 19:11:16
12334 STEAM_1:0:85989153 :) bhop_sad_gde_apelsini Segmented / Main 24 47.718s 54 114 94.06% 77.48 2020-02-28 21:04:05
12391 STEAM_1:0:85989153 :) bhop_quickie Segmented / Main 25 02:09.628m 178 333 94.39% 83.64 2020-02-29 15:41:32
12392 STEAM_1:0:85989153 :) bhop_24hrs Segmented / Main 26 01:00.056m 78 190 93.28% 79.00 2020-02-29 16:25:54
12409 STEAM_1:0:85989153 :) bhop_phertele Normal / Main 27 10.620s 14 30 94.07% 75.56 2020-02-29 20:22:44
12410 STEAM_1:0:85989153 :) bhop_olipoid Segmented / Main 28 23.790s 33 58 94.81% 71.04 2020-02-29 21:18:10
12411 STEAM_1:0:85989153 :) bhop_olipoid Normal / Main 29 23.660s 33 69 94.11% 72.88 2020-02-29 21:50:18
12515 STEAM_1:0:85989153 :) bhop_morose Segmented / Main 30 59.396s 62 154 94.57% 77.89 2020-03-01 18:18:15
12519 STEAM_1:0:85989153 :) bhop_morose Normal / Main 31 59.726s 64 152 95.30% 77.76 2020-03-01 18:24:21
12524 STEAM_1:0:85989153 :) bhop_ramp_v1 Normal / Main 32 21.740s 30 72 93.67% 75.02 2020-03-01 20:29:27
12528 STEAM_1:0:85989153 :) bhop_plox Normal / Main 33 18.820s 26 64 92.62% 69.51 2020-03-01 20:48:01
12529 STEAM_1:0:85989153 :) bhop_plox Segmented / Main 34 18.130s 25 60 91.55% 76.21 2020-03-01 20:52:17
12609 STEAM_1:0:85989153 :) bhop_messs_123 Normal / Bonus 35 5.040s 7 20 89.83% 18.83 2020-03-02 20:26:27
12610 STEAM_1:0:85989153 :) bhop_pizurin Normal / Main 36 22.600s 31 55 94.47% 76.51 2020-03-02 20:33:27
12611 STEAM_1:0:85989153 :) bhop_strafe_for_retards_fix Normal / Bonus 37 9.320s 11 39 93.50% 18.91 2020-03-02 20:45:12
12653 STEAM_1:0:85989153 :) bhop_craton Segmented / Main 38 28.471s 28 67 92.25% 76.90 2020-03-03 11:33:19
12654 STEAM_1:0:85989153 :) bhop_gonnatry Normal / Bonus 39 4.920s 5 18 82.61% 18.83 2020-03-03 11:34:38
12658 STEAM_1:0:85989153 :) bhop_kasvihuone Segmented / Main 40 44.739s 58 92 94.45% 68.63 2020-03-03 12:15:33
12662 STEAM_1:0:85989153 :) bhop_hathor Segmented / Main 41 22.100s 30 79 93.05% 76.47 2020-03-03 12:56:56
12664 STEAM_1:0:85989153 :) bhop_hathor Normal / Main 42 21.970s 30 77 93.22% 76.07 2020-03-03 13:10:47
12687 STEAM_1:0:85989153 :) bhop_everchanging Normal / Bonus 43 9.220s 13 50 90.22% 18.53 2020-03-03 15:25:31
12655 STEAM_1:0:85989153 :) bhop_paskamappi Segmented / Main 44 25.981s 36 57 95.70% 69.86 2020-03-03 16:16:14
12656 STEAM_1:0:85989153 :) bhop_paskamappi Normal / Main 45 26.451s 37 61 93.74% 69.50 2020-03-03 16:29:04
12726 STEAM_1:0:85989153 :) bhop_bubblegum Normal / Bonus 46 9.240s 14 26 91.70% 16.06 2020-03-03 20:40:03
12728 STEAM_1:0:85989153 :) bhop_overline Normal / Bonus 47 13.920s 20 46 93.14% 18.50 2020-03-03 20:54:39
12837 STEAM_1:0:85989153 :) bhop_blankbody Segmented / Main 48 31.101s 39 78 93.53% 74.73 2020-03-04 22:15:45
12899 STEAM_1:0:85989153 :) bhop_redshit Segmented / Main 49 18.780s 24 59 92.88% 75.47 2020-03-05 19:02:24
12911 STEAM_1:0:85989153 :) bhop_gismo_fix Segmented / Main 50 57.116s 74 165 90.72% 74.42 2020-03-05 20:39:00
12937 STEAM_1:0:85989153 :) bhop_lego_rnm Segmented / Main 51 59.386s 67 145 93.39% 71.84 2020-03-06 14:11:05
12960 STEAM_1:0:85989153 :) bhop_quiet Segmented / Main 52 23.971s 23 57 93.72% 76.60 2020-03-06 14:48:36
12962 STEAM_1:0:85989153 :) bhop_vsh Segmented / Main 53 28.181s 41 88 93.46% 76.88 2020-03-06 14:58:00
12981 STEAM_1:0:85989153 :) bhop_stref_shanghai Segmented / Main 54 32.121s 42 94 93.75% 74.48 2020-03-06 17:38:07
12982 STEAM_1:0:85989153 :) bhop_stref_shanghai Normal / Bonus 55 7.880s 15 40 84.67% 16.83 2020-03-06 17:46:34
13010 STEAM_1:0:85989153 :) bhop_greenglow Segmented / Main 56 41.249s 53 90 94.26% 74.03 2020-03-06 20:33:08
13042 STEAM_1:0:85989153 :) bhop_smudge Normal / Main 57 34.860s 46 122 90.92% 69.58 2020-03-07 15:10:51
13044 STEAM_1:0:85989153 :) bhop_clarity Normal / Bonus 58 7.180s 9 22 91.89% 15.88 2020-03-07 15:41:17
13055 STEAM_1:0:85989153 :) bhop_danica Normal / Main 59 18.860s 26 75 90.92% 70.88 2020-03-07 17:28:02
13088 STEAM_1:0:85989153 :) bhop_midget_fixed Normal / Main 60 52.207s 49 95 91.37% 78.48 2020-03-07 20:51:37
13131 STEAM_1:0:85989153 :) bhop_mydopa Normal / Bonus 61 7.400s 11 37 93.51% 18.51 2020-03-08 15:12:30
13125 STEAM_1:0:85989153 :) bhop_mydopa Normal / Main 62 3.390s 5 16 88.92% 71.44 2020-03-08 15:14:17
13135 STEAM_1:0:85989153 :) bhop_velstand Segmented / Bonus 63 7.890s 11 26 94.24% 18.88 2020-03-08 15:37:35
13138 STEAM_1:0:85989153 :) bhop_strafehacker_1 Normal / Bonus 64 9.750s 14 54 88.90% 18.29 2020-03-08 15:41:55
13139 STEAM_1:0:85989153 :) bhop_strafehacker_1 Normal / Main 65 10.160s 14 54 92.69% 72.45 2020-03-08 15:42:22
13152 STEAM_1:0:85989153 :) bhop_lolamap_v2 Segmented / Main 66 37.690s 48 119 91.54% 77.51 2020-03-08 18:35:13
13153 STEAM_1:0:85989153 :) bhop_temple Normal / Bonus 67 6.370s 9 18 94.59% 17.22 2020-03-08 18:46:39
13155 STEAM_1:0:85989153 :) bhop_pro_bhopper_mp Normal / Bonus 68 13.140s 19 68 89.06% 17.47 2020-03-08 18:53:15
13177 STEAM_1:0:85989153 :) bhop_horoshechnenko Normal / Main 69 29.411s 39 94 92.67% 73.58 2020-03-08 20:45:04
13180 STEAM_1:0:85989153 :) bhop_ej_wood Normal / Main 70 19.000s 24 51 92.59% 66.90 2020-03-08 20:47:09
13181 STEAM_1:0:85989153 :) bhop_duality_v2 Normal / Bonus 71 16.440s 22 48 94.21% 13.31 2020-03-08 21:16:01
13196 STEAM_1:0:85989153 :) bhop_tropic_v3 Normal / Bonus 72 6.720s 4 17 84.72% 16.07 2020-03-09 12:57:26
13259 STEAM_1:0:85989153 :) bhop_sniff_sharpies Normal / Bonus 73 6.880s 14 32 83.98% 18.86 2020-03-10 14:23:10
13273 STEAM_1:0:85989153 :) bhop_rotebal2 Normal / Bonus 74 2.990s 6 14 91.19% 18.55 2020-03-10 16:44:10
13298 STEAM_1:0:85989153 :) bhop_willneverdie Normal / Bonus 75 4.290s 4 19 88.03% 18.82 2020-03-10 20:26:59
13339 STEAM_1:0:85989153 :) bhop_torment_final3 Normal / Main 76 18.040s 21 29 97.64% 76.20 2020-03-11 11:32:20
13581 STEAM_1:0:85989153 :) bhop_okaa Normal / Main 77 29.451s 41 73 95.12% 76.96 2020-03-13 21:04:57
13579 STEAM_1:0:85989153 :) bhop_okaa Segmented / Main 78 26.841s 37 85 92.41% 76.79 2020-03-13 21:24:50
13752 STEAM_1:0:85989153 :) bhop_spaceship Segmented / Main 79 24.721s 29 68 91.89% 76.65 2020-03-15 14:12:59
13777 STEAM_1:0:85989153 :) bhop_ahimsa Normal / Main 80 9.640s 13 34 93.05% 72.87 2020-03-15 18:53:46
13781 STEAM_1:0:85989153 :) bhop_romeo2juliet Normal / Main 81 23.160s 30 43 95.44% 76.54 2020-03-15 20:11:41
13782 STEAM_1:0:85989153 :) bhop_romeo2juliet Normal / Bonus 82 15.330s 21 37 94.25% 16.51 2020-03-15 20:15:56
13780 STEAM_1:0:85989153 :) bhop_romeo2juliet Segmented / Main 83 22.580s 30 34 95.49% 70.33 2020-03-15 20:24:28
13846 STEAM_1:0:85989153 :) bhop_fast_hop_eazy Normal / Bonus 84 4.330s 4 15 83.25% 18.82 2020-03-16 14:19:32
13848 STEAM_1:0:85989153 :) bhop_wood Normal / Main 85 15.740s 21 47 92.56% 76.00 2020-03-16 14:30:29
13917 STEAM_1:0:85989153 :) bhop_strafe_fix Segmented / Bonus 86 7.150s 10 29 92.23% 18.87 2020-03-16 19:49:30
13928 STEAM_1:0:85989153 :) bhop_strafe_fix Half-Sideways / Bonus 87 8.110s 11 20 97.61% 22.66 2020-03-16 21:24:20
14001 STEAM_1:0:85989153 :) bhop_rgbglow Segmented / Main 88 01:39.333m 133 208 92.83% 81.62 2020-03-17 15:28:14
14007 STEAM_1:0:85989153 :) bhop_gloomy Segmented / Main 89 43.929s 59 114 93.86% 72.71 2020-03-17 15:57:09
14035 STEAM_1:0:85989153 :) bhop_activz Normal / Main 90 7.060s 10 27 92.64% 75.47 2020-03-17 18:35:10
14050 STEAM_1:0:85989153 :) bhop_prohop_exg Normal / Bonus 91 6.880s 10 28 92.27% 18.86 2020-03-17 19:58:19
14057 STEAM_1:0:85989153 :) bhop_never_ending Normal / Bonus 92 24.411s 28 76 88.08% 19.16 2020-03-17 20:53:02
14058 STEAM_1:0:85989153 :) bhop_lemon Normal / Main 93 5.510s 8 23 91.28% 71.79 2020-03-17 20:53:57
14060 STEAM_1:0:85989153 :) bhop_lemon Low Gravity / Main 94 5.870s 5 25 86.84% 53.06 2020-03-17 20:57:28
14135 STEAM_1:0:85989153 :) bhop_4ez_v1 Normal / Main 95 11.000s 15 52 89.35% 73.86 2020-03-18 12:42:44
13154 STEAM_1:0:85989153 :) bhop_movementkrueppel Normal / Main 96 4.070s 6 17 90.12% 73.23 2020-03-18 12:45:21
14136 STEAM_1:0:85989153 :) bhop_icosa Normal / Bonus 97 12.470s 15 45 91.43% 18.51 2020-03-18 12:59:07
14138 STEAM_1:0:85989153 :) bhop_jago Segmented / Main 98 01:06.556m 78 153 93.99% 74.60 2020-03-18 14:20:04
14235 STEAM_1:0:85989153 :) bhop_p04 Normal / Main 99 15.900s 20 54 91.16% 75.04 2020-03-19 19:23:48
14249 STEAM_1:0:85989153 :) bhop_shampoo Normal / Bonus 100 9.540s 13 37 93.07% 18.91 2020-03-19 21:12:34